Time;durP1;ratioP1;P1;durP2;ratioP2;P2;SDS_P1;SDS_P2;PMS_P1;PMS_P2;Temp;Humidity;BMP_temperature;BMP_pressure;BME280_temperature;BME280_humidity;BME280_pressure;Samples;Min_cycle;Max_cycle;Signal;HPM_P1;HPM_P2
2022/03/22 00:00:55;;;;;;;64.45;29.05;;;;;;;;;;5096148;28;20024;-45
2022/03/22 00:03:26;;;;;;;53.45;26.40;;;;;;;;;;5095813;28;20029;-46
2022/03/22 00:05:56;;;;;;;54.95;26.55;;;;;;;;;;5088057;28;20040;-45
2022/03/22 00:08:22;;;;;;;50.42;26.45;;;;;;;;;;5096003;28;20080;-47
2022/03/22 00:10:48;;;;;;;47.55;24.75;;;;;;;;;;5095836;28;20468;-45
2022/03/22 00:13:16;;;;;;;48.22;24.98;;;;;;;;;;5095879;28;20028;-45
2022/03/22 00:15:44;;;;;;;41.03;22.35;;;;;;;;;;5095552;28;20042;-45
2022/03/22 00:18:10;;;;;;;51.17;25.75;;;;;;;;;;5095921;28;20438;-46
2022/03/22 00:20:37;;;;;;;49.22;26.02;;;;;;;;;;5095940;28;20406;-44
2022/03/22 00:23:03;;;;;;;52.35;25.10;;;;;;;;;;5095631;28;20024;-45
2022/03/22 00:25:32;;;;;;;43.72;23.67;;;;;;;;;;5095628;28;20442;-46
2022/03/22 00:27:58;;;;;;;49.80;24.65;;;;;;;;;;5095658;28;20012;-43
2022/03/22 00:30:29;;;;;;;46.10;23.08;;;;;;;;;;5111594;28;20027;-47
2022/03/22 00:32:55;;;;;;;50.53;25.27;;;;;;;;;;5115642;28;20024;-49
2022/03/22 00:35:25;;;;;;;49.53;23.77;;;;;;;;;;5115443;28;20020;-47
2022/03/22 00:37:53;;;;;;;47.45;24.48;;;;;;;;;;5115695;28;20035;-47
2022/03/22 00:40:19;;;;;;;50.00;25.33;;;;;;;;;;5115141;28;20020;-47
2022/03/22 00:42:46;;;;;;;52.25;24.48;;;;;;;;;;5115800;28;20467;-45
2022/03/22 00:45:16;;;;;;;51.70;27.02;;;;;;;;;;5115394;28;20387;-44
2022/03/22 00:47:45;;;;;;;63.20;31.10;;;;;;;;;;5115139;28;20031;-45
2022/03/22 00:50:12;;;;;;;57.63;28.88;;;;;;;;;;5115549;28;20053;-44
2022/03/22 00:52:38;;;;;;;61.88;32.45;;;;;;;;;;5115531;28;20031;-44
2022/03/22 00:55:05;;;;;;;62.63;31.90;;;;;;;;;;5115374;28;20031;-45
2022/03/22 00:57:33;;;;;;;62.08;30.40;;;;;;;;;;5115246;28;20387;-45
2022/03/22 01:00:02;;;;;;;55.08;27.67;;;;;;;;;;5115192;28;20024;-44
2022/03/22 01:02:29;;;;;;;55.60;28.42;;;;;;;;;;5115118;28;20020;-44
2022/03/22 01:04:56;;;;;;;51.65;25.50;;;;;;;;;;5115029;28;20375;-46
2022/03/22 01:07:23;;;;;;;53.10;25.08;;;;;;;;;;5114992;28;20421;-44
2022/03/22 01:09:49;;;;;;;47.60;25.35;;;;;;;;;;5106962;28;20423;-48
2022/03/22 01:12:17;;;;;;;51.38;25.48;;;;;;;;;;5115057;28;20486;-46
2022/03/22 01:14:44;;;;;;;49.63;24.27;;;;;;;;;;5114850;28;20405;-44
2022/03/22 01:17:16;;;;;;;46.97;23.60;;;;;;;;;;5114903;28;20394;-47
2022/03/22 01:19:42;;;;;;;48.97;24.35;;;;;;;;;;5114878;28;20028;-47
2022/03/22 01:22:08;;;;;;;54.80;25.27;;;;;;;;;;5114924;28;20041;-48
2022/03/22 01:24:34;;;;;;;49.25;24.67;;;;;;;;;;5114782;28;20540;-46
2022/03/22 01:27:00;;;;;;;47.38;22.65;;;;;;;;;;5114679;28;20024;-46
2022/03/22 01:29:28;;;;;;;46.25;23.25;;;;;;;;;;5114430;28;20019;-45
2022/03/22 01:31:55;;;;;;;50.08;25.05;;;;;;;;;;5114744;28;20050;-46
2022/03/22 01:34:21;;;;;;;56.28;25.38;;;;;;;;;;5114587;28;20023;-48
2022/03/22 01:36:47;;;;;;;46.58;22.88;;;;;;;;;;5114551;28;20032;-43
2022/03/22 01:39:13;;;;;;;49.17;23.95;;;;;;;;;;5114567;28;20027;-45
2022/03/22 01:41:39;;;;;;;52.92;25.38;;;;;;;;;;5114553;28;20379;-45
2022/03/22 01:44:05;;;;;;;49.30;23.00;;;;;;;;;;5114349;28;20019;-46
2022/03/22 01:46:35;;;;;;;43.95;21.95;;;;;;;;;;5114448;28;20024;-47
2022/03/22 01:49:03;;;;;;;49.50;24.98;;;;;;;;;;5114112;28;20055;-47
2022/03/22 01:51:33;;;;;;;49.15;24.35;;;;;;;;;;5114406;28;20500;-47
2022/03/22 01:53:59;;;;;;;53.85;26.08;;;;;;;;;;5114510;28;20069;-47
2022/03/22 01:56:25;;;;;;;44.08;21.92;;;;;;;;;;5114144;28;20036;-47
2022/03/22 01:58:55;;;;;;;46.38;22.95;;;;;;;;;;5114210;28;20467;-45
2022/03/22 02:06:55;;;;;;;37.35;19.15;;;;;;;;;;5114359;28;20035;-51
2022/03/22 02:09:23;;;;;;;40.92;20.58;;;;;;;;;;5113996;28;20024;-47
2022/03/22 02:11:49;;;;;;;40.70;19.88;;;;;;;;;;5105805;28;20036;-47
2022/03/22 02:14:15;;;;;;;39.63;20.35;;;;;;;;;;5114114;28;20510;-47
2022/03/22 02:16:41;;;;;;;33.13;17.83;;;;;;;;;;5112818;28;20030;-47
2022/03/22 02:19:14;;;;;;;33.15;16.80;;;;;;;;;;5113994;28;20036;-49
2022/03/22 02:21:41;;;;;;;31.73;16.90;;;;;;;;;;5113888;28;20069;-47
2022/03/22 02:24:07;;;;;;;31.83;16.42;;;;;;;;;;5113839;28;20106;-46
2022/03/22 02:26:33;;;;;;;32.90;16.77;;;;;;;;;;5113845;28;20019;-46
2022/03/22 02:29:01;;;;;;;33.53;16.48;;;;;;;;;;5113909;28;20463;-47
2022/03/22 02:31:28;;;;;;;27.95;15.73;;;;;;;;;;5113833;28;20030;-45
2022/03/22 02:33:55;;;;;;;37.42;19.77;;;;;;;;;;5113764;28;20020;-48
2022/03/22 02:36:21;;;;;;;40.97;19.75;;;;;;;;;;5113871;28;20069;-47
2022/03/22 02:38:48;;;;;;;36.35;18.63;;;;;;;;;;5113637;28;20038;-47
2022/03/22 02:41:21;;;;;;;37.75;17.92;;;;;;;;;;5113690;28;20031;-48
2022/03/22 02:43:50;;;;;;;36.45;17.67;;;;;;;;;;5113610;28;20024;-47
2022/03/22 02:46:17;;;;;;;33.17;16.10;;;;;;;;;;5113684;28;20016;-47
2022/03/22 02:48:43;;;;;;;33.50;16.67;;;;;;;;;;5113322;28;20051;-46
2022/03/22 02:51:09;;;;;;;33.83;16.20;;;;;;;;;;5113616;28;20035;-47
2022/03/22 02:53:36;;;;;;;39.92;17.80;;;;;;;;;;5113708;28;20038;-48
2022/03/22 02:56:02;;;;;;;35.55;18.30;;;;;;;;;;5113430;28;20111;-48
2022/03/22 02:58:28;;;;;;;38.65;18.45;;;;;;;;;;5113382;28;20028;-46
2022/03/22 03:00:54;;;;;;;32.88;16.90;;;;;;;;;;5113781;28;20028;-47
2022/03/22 03:03:22;;;;;;;31.10;15.38;;;;;;;;;;5113314;28;20019;-47
2022/03/22 03:05:54;;;;;;;29.88;15.43;;;;;;;;;;5113628;28;20543;-48
2022/03/22 03:08:21;;;;;;;33.30;15.43;;;;;;;;;;5095174;28;20027;-48
2022/03/22 03:10:48;;;;;;;33.33;14.93;;;;;;;;;;5113407;28;20538;-45
2022/03/22 03:13:14;;;;;;;33.35;15.98;;;;;;;;;;5113469;28;20097;-47
2022/03/22 03:15:40;;;;;;;27.92;13.88;;;;;;;;;;5113412;28;20511;-45
2022/03/22 03:18:06;;;;;;;28.08;14.52;;;;;;;;;;5113060;28;20042;-47
2022/03/22 03:20:32;;;;;;;30.92;15.43;;;;;;;;;;5113164;28;20084;-46
2022/03/22 03:22:58;;;;;;;29.15;15.05;;;;;;;;;;5113307;28;20024;-46
2022/03/22 03:25:25;;;;;;;33.58;15.52;;;;;;;;;;5113179;28;20072;-44
2022/03/22 03:27:52;;;;;;;26.63;14.18;;;;;;;;;;5114072;28;20028;-46
2022/03/22 03:30:18;;;;;;;27.83;14.48;;;;;;;;;;5117055;28;20149;-44
2022/03/22 03:32:45;;;;;;;28.92;14.82;;;;;;;;;;5116947;28;20091;-49
2022/03/22 03:35:11;;;;;;;30.52;15.75;;;;;;;;;;5116998;28;20094;-50
2022/03/22 03:37:41;;;;;;;27.85;13.95;;;;;;;;;;5098516;28;20511;-43
2022/03/22 03:40:07;;;;;;;30.05;15.70;;;;;;;;;;5116777;28;20133;-43
2022/03/22 03:42:39;;;;;;;30.52;14.98;;;;;;;;;;5116807;28;20102;-46
2022/03/22 03:47:49;;;;;;;28.23;13.73;;;;;;;;;;5116450;28;19923;-44
2022/03/22 03:50:16;;;;;;;28.83;13.82;;;;;;;;;;5116720;28;20505;-46
2022/03/22 03:52:42;;;;;;;28.50;13.85;;;;;;;;;;5116773;28;20034;-46
2022/03/22 03:55:10;;;;;;;33.55;13.70;;;;;;;;;;5116489;28;20020;-46
2022/03/22 03:57:36;;;;;;;31.65;14.50;;;;;;;;;;5116691;28;20035;-46
2022/03/22 04:00:04;;;;;;;26.80;14.40;;;;;;;;;;5116430;28;20019;-44
2022/03/22 04:02:32;;;;;;;24.77;13.30;;;;;;;;;;5116399;28;20059;-44
2022/03/22 04:05:00;;;;;;;29.83;15.52;;;;;;;;;;5116356;28;20143;-43
2022/03/22 04:07:27;;;;;;;30.38;14.43;;;;;;;;;;5116457;28;20137;-43
2022/03/22 04:09:54;;;;;;;26.05;13.60;;;;;;;;;;5116281;28;20028;-43
2022/03/22 04:12:22;;;;;;;28.20;14.70;;;;;;;;;;5116242;28;20028;-44
2022/03/22 04:14:51;;;;;;;30.33;14.50;;;;;;;;;;5116178;28;20023;-42
2022/03/22 04:17:17;;;;;;;31.88;15.07;;;;;;;;;;5115765;28;20031;-45
2022/03/22 04:19:45;;;;;;;29.88;14.93;;;;;;;;;;5116040;28;20837;-43
2022/03/22 04:22:11;;;;;;;29.42;14.20;;;;;;;;;;5116011;28;20035;-44
2022/03/22 04:24:37;;;;;;;27.52;14.23;;;;;;;;;;5116013;28;20526;-42
2022/03/22 04:32:43;;;;;;;29.73;15.10;;;;;;;;;;5116099;28;20062;-41
2022/03/22 04:35:20;;;;;;;26.77;14.88;;;;;;;;;;5115912;28;20027;-45
2022/03/22 04:37:50;;;;;;;30.02;16.10;;;;;;;;;;5115744;28;20032;-50
2022/03/22 04:40:16;;;;;;;34.47;17.45;;;;;;;;;;5114625;28;20076;-46
2022/03/22 04:42:43;;;;;;;42.53;18.20;;;;;;;;;;5115445;28;20027;-43
2022/03/22 04:45:09;;;;;;;44.35;20.02;;;;;;;;;;5115626;28;20023;-44
2022/03/22 04:47:36;;;;;;;43.58;18.83;;;;;;;;;;5115083;28;20110;-43
2022/03/22 04:50:05;;;;;;;38.47;17.20;;;;;;;;;;5115317;28;20028;-43
2022/03/22 04:58:02;;;;;;;46.05;21.23;;;;;;;;;;5115365;28;20066;-43
2022/03/22 05:00:28;;;;;;;36.70;18.35;;;;;;;;;;5115369;28;20381;-43
2022/03/22 05:02:54;;;;;;;34.45;19.17;;;;;;;;;;5115277;28;20106;-44
2022/03/22 05:06:25;;;;;;;35.67;19.00;;;;;;;;;;5115097;28;20022;-45
2022/03/22 05:08:06;;;;;;;44.60;21.23;;;;;;;;;;5114971;28;20030;-44
2022/03/22 05:10:35;;;;;;;34.63;18.20;;;;;;;;;;5114977;28;20053;-43
2022/03/22 05:13:01;;;;;;;39.10;18.33;;;;;;;;;;5115020;28;20047;-43
2022/03/22 05:15:27;;;;;;;41.05;20.00;;;;;;;;;;5114953;28;20030;-44
2022/03/22 05:17:55;;;;;;;31.60;18.23;;;;;;;;;;5115089;28;20081;-44
2022/03/22 05:20:22;;;;;;;38.83;21.10;;;;;;;;;;5114757;28;20190;-42
2022/03/22 05:22:48;;;;;;;35.45;19.40;;;;;;;;;;5115046;28;20047;-43
2022/03/22 05:25:16;;;;;;;36.30;18.13;;;;;;;;;;5115166;28;20206;-43
2022/03/22 05:27:43;;;;;;;36.10;17.27;;;;;;;;;;5114912;28;20023;-45
2022/03/22 05:30:09;;;;;;;32.05;18.60;;;;;;;;;;5114863;28;20027;-42
2022/03/22 05:32:35;;;;;;;41.08;17.88;;;;;;;;;;5114646;28;20548;-42
2022/03/22 05:35:01;;;;;;;36.55;18.67;;;;;;;;;;5114532;28;20077;-41
2022/03/22 05:37:27;;;;;;;29.25;16.33;;;;;;;;;;5114511;28;20031;-43
2022/03/22 05:39:53;;;;;;;30.35;17.15;;;;;;;;;;5114683;28;20364;-45
2022/03/22 05:42:20;;;;;;;32.90;16.58;;;;;;;;;;5114598;28;20115;-43
2022/03/22 05:44:47;;;;;;;37.40;17.80;;;;;;;;;;5114492;28;20077;-44
2022/03/22 05:47:14;;;;;;;38.25;19.58;;;;;;;;;;5114965;28;20406;-45
2022/03/22 05:49:42;;;;;;;39.53;20.85;;;;;;;;;;5114130;28;20062;-45
2022/03/22 05:52:12;;;;;;;37.55;20.88;;;;;;;;;;5114006;28;20504;-47
2022/03/22 05:54:39;;;;;;;38.17;21.13;;;;;;;;;;5114198;28;20119;-47
2022/03/22 05:57:05;;;;;;;37.13;21.45;;;;;;;;;;5114149;28;20096;-46
2022/03/22 05:59:31;;;;;;;38.60;22.75;;;;;;;;;;5114155;28;20030;-48
2022/03/22 06:01:57;;;;;;;36.90;20.33;;;;;;;;;;5113995;28;20466;-48
2022/03/22 06:04:23;;;;;;;37.38;21.52;;;;;;;;;;5113908;28;20446;-48
2022/03/22 06:06:49;;;;;;;34.95;20.40;;;;;;;;;;5113940;28;20016;-47
2022/03/22 06:09:16;;;;;;;38.88;21.17;;;;;;;;;;5113813;28;20054;-47
2022/03/22 06:11:42;;;;;;;35.33;20.30;;;;;;;;;;5113958;28;20031;-46
2022/03/22 06:14:09;;;;;;;35.03;20.75;;;;;;;;;;5113953;28;20024;-46
2022/03/22 06:16:35;;;;;;;33.53;19.83;;;;;;;;;;5113706;28;20024;-47
2022/03/22 06:19:01;;;;;;;35.60;17.65;;;;;;;;;;5113619;28;20391;-46
2022/03/22 06:21:27;;;;;;;28.42;16.25;;;;;;;;;;5113701;28;20026;-46
2022/03/22 06:23:53;;;;;;;32.53;17.52;;;;;;;;;;5113937;28;20353;-46
2022/03/22 06:26:22;;;;;;;38.63;18.33;;;;;;;;;;5113588;28;20026;-47
2022/03/22 06:28:48;;;;;;;39.22;20.55;;;;;;;;;;5114025;28;20058;-45
2022/03/22 06:31:14;;;;;;;30.67;19.10;;;;;;;;;;5114104;28;20016;-45
2022/03/22 06:33:41;;;;;;;40.25;19.98;;;;;;;;;;5113641;28;20425;-45
2022/03/22 06:36:08;;;;;;;37.05;20.17;;;;;;;;;;5113493;28;20054;-47
2022/03/22 06:38:35;;;;;;;35.45;19.52;;;;;;;;;;5113616;28;20031;-47
2022/03/22 06:41:01;;;;;;;36.42;20.15;;;;;;;;;;5113611;28;20016;-47
2022/03/22 06:43:27;;;;;;;25.17;15.55;;;;;;;;;;5113526;28;20019;-48
2022/03/22 06:45:53;;;;;;;35.60;21.92;;;;;;;;;;5113754;28;20050;-47
2022/03/22 06:48:19;;;;;;;72.30;40.63;;;;;;;;;;5107821;28;20096;-48
2022/03/22 06:50:49;;;;;;;42.90;25.73;;;;;;;;;;5101254;28;20035;-49
2022/03/22 06:53:16;;;;;;;40.33;23.48;;;;;;;;;;5110281;28;20398;-45
2022/03/22 06:55:42;;;;;;;32.35;17.90;;;;;;;;;;5113707;28;20024;-45
2022/03/22 06:58:11;;;;;;;30.10;16.17;;;;;;;;;;5094459;28;20606;-44
2022/03/22 07:00:37;;;;;;;26.60;16.75;;;;;;;;;;5113530;28;20048;-44
2022/03/22 07:03:04;;;;;;;29.90;17.17;;;;;;;;;;5114665;28;20023;-43
2022/03/22 07:05:31;;;;;;;28.17;15.10;;;;;;;;;;5117487;28;20047;-43
2022/03/22 07:07:57;;;;;;;27.88;16.58;;;;;;;;;;5117438;28;20019;-43
2022/03/22 07:10:23;;;;;;;29.65;16.17;;;;;;;;;;5117483;28;20012;-44
2022/03/22 07:12:53;;;;;;;29.45;16.90;;;;;;;;;;5117358;28;20031;-43
2022/03/22 07:15:23;;;;;;;24.73;13.88;;;;;;;;;;5117335;28;20383;-44
2022/03/22 07:17:54;;;;;;;30.17;14.52;;;;;;;;;;5100499;28;20024;-43
2022/03/22 07:20:20;;;;;;;;;;;;;;;;;;5117550;28;20076;-42
2022/03/22 07:22:47;;;;;;;20.98;13.57;;;;;;;;;;5117158;28;19904;-44
2022/03/22 07:25:13;;;;;;;25.48;15.15;;;;;;;;;;5117368;28;20095;-46
2022/03/22 07:27:39;;;;;;;26.92;15.95;;;;;;;;;;5098793;28;20023;-45
2022/03/22 07:30:06;;;;;;;26.20;15.18;;;;;;;;;;5117012;28;20032;-45
2022/03/22 07:32:32;;;;;;;24.83;15.13;;;;;;;;;;5116894;28;20035;-46
2022/03/22 07:35:00;;;;;;;20.63;12.27;;;;;;;;;;5116750;28;20538;-45
2022/03/22 07:37:29;;;;;;;17.73;10.75;;;;;;;;;;5116842;28;20034;-46
2022/03/22 07:39:58;;;;;;;17.05;10.50;;;;;;;;;;5116931;28;20168;-46
2022/03/22 07:42:27;;;;;;;16.88;11.57;;;;;;;;;;5116809;28;20519;-44
2022/03/22 07:44:55;;;;;;;17.00;11.05;;;;;;;;;;5116624;28;20019;-44
2022/03/22 07:47:21;;;;;;;17.10;11.23;;;;;;;;;;5116894;28;20028;-44
2022/03/22 07:55:16;;;;;;;16.98;10.85;;;;;;;;;;5116597;28;20497;-46
2022/03/22 07:57:42;;;;;;;20.55;11.05;;;;;;;;;;5116543;28;20042;-45
2022/03/22 08:00:08;;;;;;;17.25;10.35;;;;;;;;;;5116430;28;20069;-45
2022/03/22 08:02:36;;;;;;;16.77;10.60;;;;;;;;;;5116618;28;20023;-45
2022/03/22 08:05:04;;;;;;;17.52;11.10;;;;;;;;;;5116346;28;20152;-45
2022/03/22 08:07:31;;;;;;;21.45;10.48;;;;;;;;;;5116465;28;20072;-45
2022/03/22 08:09:59;;;;;;;21.65;10.18;;;;;;;;;;5116459;28;20030;-44
2022/03/22 08:12:26;;;;;;;13.10;8.52;;;;;;;;;;5116012;28;20031;-44
2022/03/22 08:14:52;;;;;;;16.25;9.73;;;;;;;;;;5114916;28;20118;-45
2022/03/22 08:17:18;;;;;;;14.70;10.02;;;;;;;;;;5116248;28;20031;-45
2022/03/22 08:19:44;;;;;;;11.95;7.80;;;;;;;;;;5116168;28;20415;-45
2022/03/22 08:22:10;;;;;;;18.15;9.38;;;;;;;;;;5116259;28;20026;-45
2022/03/22 08:24:36;;;;;;;24.88;11.05;;;;;;;;;;5116079;28;20096;-45
2022/03/22 08:27:07;;;;;;;16.98;9.80;;;;;;;;;;5116044;28;20035;-45
2022/03/22 08:29:35;;;;;;;14.87;8.40;;;;;;;;;;5115846;28;20107;-45
2022/03/22 08:32:03;;;;;;;13.27;8.45;;;;;;;;;;5115863;28;20529;-43
2022/03/22 08:34:29;;;;;;;13.70;8.55;;;;;;;;;;5115704;28;20058;-45
2022/03/22 08:36:55;;;;;;;14.57;8.35;;;;;;;;;;5115810;28;20055;-45
2022/03/22 08:39:21;;;;;;;12.48;7.40;;;;;;;;;;5115701;28;20031;-43
2022/03/22 08:41:47;;;;;;;10.60;7.15;;;;;;;;;;5115832;28;20171;-49
2022/03/22 08:44:13;;;;;;;11.68;7.03;;;;;;;;;;5115451;28;20047;-46
2022/03/22 08:46:40;;;;;;;11.23;7.60;;;;;;;;;;5115586;28;20417;-46
2022/03/22 08:49:06;;;;;;;12.00;7.13;;;;;;;;;;5115139;28;20479;-43
2022/03/22 08:51:32;;;;;;;9.95;7.28;;;;;;;;;;5115712;28;20024;-45
2022/03/22 08:53:58;;;;;;;11.88;7.88;;;;;;;;;;5115434;28;20020;-45
2022/03/22 08:56:24;;;;;;;12.88;7.82;;;;;;;;;;5115432;28;20019;-44
2022/03/22 08:58:53;;;;;;;13.07;7.78;;;;;;;;;;5115034;28;20035;-44
2022/03/22 09:01:27;;;;;;;11.57;6.68;;;;;;;;;;5115380;28;20083;-46
2022/03/22 09:06:38;;;;;;;8.75;6.82;;;;;;;;;;5115288;28;20035;-43
2022/03/22 09:09:09;;;;;;;12.70;7.75;;;;;;;;;;5115490;28;20379;-44
2022/03/22 09:11:38;;;;;;;9.93;6.90;;;;;;;;;;5115051;28;20019;-44
2022/03/22 09:14:05;;;;;;;12.32;8.98;;;;;;;;;;5115118;28;20459;-45
2022/03/22 09:16:32;;;;;;;10.85;7.32;;;;;;;;;;5115072;28;20395;-44
2022/03/22 09:18:58;;;;;;;11.13;7.68;;;;;;;;;;5114909;28;20466;-44
2022/03/22 09:21:25;;;;;;;13.20;6.82;;;;;;;;;;5115120;28;20019;-45
2022/03/22 09:23:51;;;;;;;8.93;6.60;;;;;;;;;;5115293;28;20483;-45
2022/03/22 09:26:17;;;;;;;10.98;7.38;;;;;;;;;;5114379;28;20027;-44
2022/03/22 09:28:43;;;;;;;9.88;6.43;;;;;;;;;;5114933;28;20024;-46
2022/03/22 09:31:09;;;;;;;16.65;7.45;;;;;;;;;;5114610;28;20232;-47
2022/03/22 09:33:35;;;;;;;9.57;6.25;;;;;;;;;;5114752;28;20157;-44
2022/03/22 09:36:01;;;;;;;10.20;6.80;;;;;;;;;;5114918;28;20027;-47
2022/03/22 09:38:28;;;;;;;9.45;6.70;;;;;;;;;;5114527;28;20509;-45
2022/03/22 09:40:54;;;;;;;15.32;7.05;;;;;;;;;;5114522;28;20051;-45
2022/03/22 09:43:23;;;;;;;9.30;6.57;;;;;;;;;;5114635;28;20023;-43
2022/03/22 09:45:51;;;;;;;10.65;7.75;;;;;;;;;;5106032;28;20063;-44
2022/03/22 09:48:17;;;;;;;11.77;6.65;;;;;;;;;;5107337;28;20056;-45
2022/03/22 09:53:30;;;;;;;8.73;6.68;;;;;;;;;;5094067;28;20105;-46
2022/03/22 09:55:56;;;;;;;12.05;6.97;;;;;;;;;;5093859;28;20557;-46
2022/03/22 09:58:22;;;;;;;9.05;6.72;;;;;;;;;;5094035;28;20033;-45
2022/03/22 10:00:49;;;;;;;10.80;7.25;;;;;;;;;;5093965;28;20042;-44
2022/03/22 10:03:21;;;;;;;14.80;7.20;;;;;;;;;;5093923;28;20424;-45
2022/03/22 10:06:03;;;;;;;16.45;7.57;;;;;;;;;;5093680;28;20036;-45
2022/03/22 10:08:29;;;;;;;15.45;7.43;;;;;;;;;;5093751;28;20494;-43
2022/03/22 10:10:58;;;;;;;13.75;7.22;;;;;;;;;;5093751;28;20495;-43
2022/03/22 10:13:24;;;;;;;9.10;6.63;;;;;;;;;;5093820;28;20035;-42
2022/03/22 10:15:50;;;;;;;23.75;9.70;;;;;;;;;;5093566;28;20027;-44
2022/03/22 10:18:23;;;;;;;14.57;8.45;;;;;;;;;;5093400;28;20040;-43
2022/03/22 10:20:49;;;;;;;38.55;20.15;;;;;;;;;;5093494;28;20028;-48
2022/03/22 10:23:15;;;;;;;39.38;21.02;;;;;;;;;;5093330;28;20059;-47
2022/03/22 10:25:42;;;;;;;19.08;11.35;;;;;;;;;;5093596;28;20028;-45
2022/03/22 10:28:08;;;;;;;35.22;19.33;;;;;;;;;;5093511;28;20035;-46
2022/03/22 10:30:40;;;;;;;18.95;12.00;;;;;;;;;;5093653;28;20024;-44
2022/03/22 10:33:06;;;;;;;;;;;;;;;;;;5093721;28;20476;-43
2022/03/22 10:35:33;;;;;;;20.15;12.38;;;;;;;;;;5093319;28;19908;-48
2022/03/22 10:38:09;;;;;;;19.55;12.65;;;;;;;;;;5094270;28;20034;-49
2022/03/22 10:40:40;;;;;;;17.33;11.20;;;;;;;;;;5097617;28;20077;-48
2022/03/22 10:43:10;;;;;;;35.50;18.67;;;;;;;;;;5097950;28;20499;-43
2022/03/22 10:45:43;;;;;;;38.25;18.30;;;;;;;;;;5097609;28;20073;-45
2022/03/22 10:48:09;;;;;;;23.75;13.32;;;;;;;;;;5102926;28;20078;-45
2022/03/22 10:50:39;;;;;;;13.10;8.02;;;;;;;;;;5117925;28;20050;-45
2022/03/22 10:53:09;;;;;;;20.15;13.15;;;;;;;;;;5117884;28;20487;-46
2022/03/22 10:55:36;;;;;;;38.65;16.98;;;;;;;;;;5117819;28;20045;-46
2022/03/22 10:58:02;;;;;;;31.52;13.75;;;;;;;;;;5117588;28;20498;-47
2022/03/22 11:00:30;;;;;;;28.70;16.85;;;;;;;;;;5117385;28;20036;-46
2022/03/22 11:02:56;;;;;;;30.13;16.13;;;;;;;;;;5117037;28;20026;-47
2022/03/22 11:05:27;;;;;;;35.42;18.48;;;;;;;;;;5117184;28;20024;-43
2022/03/22 11:07:54;;;;;;;20.00;12.25;;;;;;;;;;5117182;28;20498;-46
2022/03/22 11:10:29;;;;;;;18.25;10.60;;;;;;;;;;5117432;28;20031;-47
2022/03/22 11:12:57;;;;;;;18.55;12.15;;;;;;;;;;5117140;28;20020;-46
2022/03/22 11:15:24;;;;;;;16.85;10.82;;;;;;;;;;5117336;28;20026;-46
2022/03/22 11:17:51;;;;;;;17.77;10.88;;;;;;;;;;5117342;28;20039;-45
2022/03/22 11:20:17;;;;;;;15.57;9.35;;;;;;;;;;5116927;28;20487;-47
2022/03/22 11:22:51;;;;;;;19.65;10.35;;;;;;;;;;5117094;28;20028;-46
2022/03/22 11:25:22;;;;;;;18.60;10.88;;;;;;;;;;5116756;28;20028;-49
2022/03/22 11:27:58;;;;;;;18.10;9.80;;;;;;;;;;5117339;28;20046;-47
2022/03/22 11:30:25;;;;;;;18.75;10.07;;;;;;;;;;5117281;28;20119;-46
2022/03/22 11:35:46;;;;;;;13.48;9.60;;;;;;;;;;5117043;28;20038;-49
2022/03/22 11:38:13;;;;;;;22.60;9.48;;;;;;;;;;5116735;28;20026;-50
2022/03/22 11:43:42;;;;;;;15.35;10.85;;;;;;;;;;5116872;28;20051;-47
2022/03/22 11:46:08;;;;;;;16.25;9.60;;;;;;;;;;5116981;28;20019;-49
2022/03/22 11:48:34;;;;;;;19.77;9.82;;;;;;;;;;5098177;28;20185;-48
2022/03/22 11:51:07;;;;;;;19.63;8.98;;;;;;;;;;5116616;28;20032;-48
2022/03/22 11:53:43;;;;;;;13.55;8.13;;;;;;;;;;5116588;28;20024;-47
2022/03/22 11:56:10;;;;;;;12.30;8.30;;;;;;;;;;5116487;28;20027;-46
2022/03/22 11:58:36;;;;;;;13.10;8.02;;;;;;;;;;5116297;28;20038;-49
2022/03/22 12:01:03;;;;;;;13.18;8.88;;;;;;;;;;5116523;28;20467;-49
2022/03/22 12:03:33;;;;;;;15.70;9.15;;;;;;;;;;5116050;28;20038;-49
2022/03/22 12:06:12;;;;;;;12.38;8.13;;;;;;;;;;5116441;28;20065;-48
2022/03/22 12:08:38;;;;;;;17.08;8.68;;;;;;;;;;5116397;28;20089;-47
2022/03/22 12:11:04;;;;;;;16.48;8.52;;;;;;;;;;5116046;28;20023;-47
2022/03/22 12:13:31;;;;;;;12.35;7.88;;;;;;;;;;5116522;28;20106;-48
2022/03/22 12:15:58;;;;;;;13.63;8.15;;;;;;;;;;5116438;28;20023;-47
2022/03/22 12:18:27;;;;;;;14.85;9.30;;;;;;;;;;5115953;28;20039;-46
2022/03/22 12:20:56;;;;;;;13.82;8.68;;;;;;;;;;5115856;28;20051;-46
2022/03/22 12:23:22;;;;;;;13.05;8.38;;;;;;;;;;5116018;28;20036;-54
2022/03/22 12:25:49;;;;;;;23.55;9.70;;;;;;;;;;5116006;28;20034;-54
2022/03/22 12:28:16;;;;;;;11.98;7.85;;;;;;;;;;5116301;28;20027;-49
2022/03/22 12:30:43;;;;;;;12.95;8.43;;;;;;;;;;5116048;28;20016;-54
2022/03/22 12:33:11;;;;;;;12.45;6.85;;;;;;;;;;5115866;28;20068;-55
2022/03/22 12:35:37;;;;;;;13.80;7.00;;;;;;;;;;5115760;28;20020;-52
2022/03/22 12:38:04;;;;;;;13.10;7.65;;;;;;;;;;5115532;28;20065;-57
2022/03/22 12:40:30;;;;;;;16.90;8.35;;;;;;;;;;5116244;28;20024;-47
2022/03/22 12:42:56;;;;;;;17.80;7.97;;;;;;;;;;5115906;28;20467;-53
2022/03/22 12:45:23;;;;;;;13.35;8.15;;;;;;;;;;5115457;28;20059;-54
2022/03/22 12:47:50;;;;;;;13.93;8.07;;;;;;;;;;5115547;28;20477;-49
2022/03/22 12:50:18;;;;;;;12.23;7.85;;;;;;;;;;5115541;28;20032;-47
2022/03/22 12:52:44;;;;;;;14.98;8.68;;;;;;;;;;5115575;28;20039;-48
2022/03/22 12:55:12;;;;;;;13.85;8.18;;;;;;;;;;5115397;28;20093;-55
2022/03/22 12:57:41;;;;;;;13.90;8.02;;;;;;;;;;5115540;28;20035;-48
2022/03/22 13:00:07;;;;;;;13.25;8.48;;;;;;;;;;5114973;28;20035;-53
2022/03/22 13:02:36;;;;;;;18.30;8.10;;;;;;;;;;5114935;28;20047;-50
2022/03/22 13:05:02;;;;;;;14.35;7.45;;;;;;;;;;5115276;28;20081;-46
2022/03/22 13:07:29;;;;;;;12.00;7.13;;;;;;;;;;5115217;28;20031;-52
2022/03/22 13:12:41;;;;;;;11.95;7.30;;;;;;;;;;5115888;28;20054;-47
2022/03/22 13:15:11;;;;;;;12.63;7.55;;;;;;;;;;5114965;28;20028;-54
2022/03/22 13:17:48;;;;;;;13.77;7.85;;;;;;;;;;5115208;28;20028;-46
2022/03/22 13:20:22;;;;;;;14.55;9.40;;;;;;;;;;5096034;28;20066;-49
2022/03/22 13:22:58;;;;;;;15.32;8.60;;;;;;;;;;5115070;28;20031;-47
2022/03/22 13:25:38;;;;;;;15.43;8.35;;;;;;;;;;5096583;28;20552;-46
2022/03/22 13:28:07;;;;;;;16.13;9.25;;;;;;;;;;5114813;28;20032;-46
2022/03/22 13:30:34;;;;;;;20.38;8.80;;;;;;;;;;5114639;28;20035;-51
2022/03/22 13:33:13;;;;;;;12.60;7.50;;;;;;;;;;5114692;28;20048;-48
2022/03/22 13:35:51;;;;;;;12.50;6.97;;;;;;;;;;5114577;28;20081;-49
2022/03/22 13:38:17;;;;;;;10.93;6.70;;;;;;;;;;5114336;28;20458;-46
2022/03/22 13:40:44;;;;;;;14.55;7.22;;;;;;;;;;5114790;28;20107;-45
2022/03/22 13:43:11;;;;;;;14.10;7.18;;;;;;;;;;5114412;28;20034;-45
2022/03/22 13:45:38;;;;;;;11.98;7.10;;;;;;;;;;5114721;28;20102;-45
2022/03/22 13:48:08;;;;;;;12.02;7.90;;;;;;;;;;5114366;28;20059;-46
2022/03/22 13:50:34;;;;;;;13.55;7.40;;;;;;;;;;5114380;28;20511;-46
2022/03/22 13:53:12;;;;;;;11.85;7.30;;;;;;;;;;5114174;28;20471;-45
2022/03/22 13:55:41;;;;;;;25.83;8.45;;;;;;;;;;5114313;28;20036;-46
2022/03/22 13:58:12;;;;;;;17.40;7.10;;;;;;;;;;5114358;28;20460;-46
2022/03/22 14:00:45;;;;;;;12.38;7.22;;;;;;;;;;5114382;28;20658;-45
2022/03/22 14:03:12;;;;;;;12.82;6.88;;;;;;;;;;5114314;28;20525;-45
2022/03/22 14:05:39;;;;;;;10.88;6.78;;;;;;;;;;5114035;28;20031;-46
2022/03/22 14:08:05;;;;;;;12.02;5.70;;;;;;;;;;5114212;28;20068;-48
2022/03/22 14:10:32;;;;;;;10.40;5.85;;;;;;;;;;5113945;28;20023;-46
2022/03/22 14:12:59;;;;;;;10.20;6.20;;;;;;;;;;5114011;28;20028;-46
2022/03/22 14:15:25;;;;;;;12.73;6.97;;;;;;;;;;5114084;28;20031;-48
2022/03/22 14:17:51;;;;;;;13.57;7.55;;;;;;;;;;5114387;28;20038;-49
2022/03/22 14:20:18;;;;;;;13.45;6.85;;;;;;;;;;5113949;28;20122;-46
2022/03/22 14:22:47;;;;;;;11.45;7.63;;;;;;;;;;5106242;28;20084;-45
2022/03/22 14:25:16;;;;;;;11.98;7.07;;;;;;;;;;5103681;28;20102;-47
2022/03/22 14:27:43;;;;;;;15.68;6.90;;;;;;;;;;5108448;28;20021;-44
2022/03/22 14:30:14;;;;;;;9.75;6.03;;;;;;;;;;5108781;28;20054;-46
2022/03/22 14:32:51;;;;;;;11.82;6.60;;;;;;;;;;5105002;28;20094;-44
2022/03/22 14:38:03;;;;;;;10.88;6.38;;;;;;;;;;5116155;28;20120;-43
2022/03/22 14:40:29;;;;;;;12.85;7.50;;;;;;;;;;5086823;28;20108;-44
2022/03/22 14:42:56;;;;;;;11.20;6.57;;;;;;;;;;5090079;28;20015;-43
2022/03/22 14:45:23;;;;;;;12.70;7.10;;;;;;;;;;5086079;28;20319;-43
2022/03/22 14:47:52;;;;;;;11.48;6.68;;;;;;;;;;5090631;28;20016;-43
2022/03/22 14:50:19;;;;;;;11.43;6.93;;;;;;;;;;5112730;28;20047;-44
2022/03/22 14:55:31;;;;;;;12.07;6.88;;;;;;;;;;5113259;28;20034;-43
2022/03/22 15:00:42;;;;;;;17.13;10.27;;;;;;;;;;5113301;28;20131;-44
2022/03/22 15:03:08;;;;;;;27.67;12.05;;;;;;;;;;5113213;28;20016;-44
2022/03/22 15:05:39;;;;;;;24.48;12.65;;;;;;;;;;5113650;28;20032;-45
2022/03/22 15:08:11;;;;;;;18.45;10.35;;;;;;;;;;5113301;28;20048;-42
2022/03/22 15:10:38;;;;;;;28.05;13.63;;;;;;;;;;5113603;28;20020;-44
2022/03/22 15:13:07;;;;;;;21.98;11.98;;;;;;;;;;5113359;28;20073;-44